Grand Junction, CO

12:25 AM MDT on March 31, 2015 (GMT -0600)
Chipeta Ave south of Washington Park | | Change Station
CLOSE
Current Station
Personal Weather Station
Location: Grand Junction, CO
Elevation: 4603 ft
Nearby Weather Stations

Elev 4603 ft 39.07 °N, 108.56 °W | Updated 10 seconds ago

Clear
Clear
53.0 °F
Feels Like 53.0 °F
N
0.0
Wind Variable Wind from ENE
Gusts 1.0 mph

Today
High -- | Low -- °F
--% Chance of Precip.
Yesterday
High -- | Low -- °F
Precip. -- in
7:00 AM 7:36 PM
Waxing Gibbous, 85% visible
Pressure 29.97 in
Visibility 10.0 miles
Clouds Clear
Dew Point 21 °F
Humidity 28%
Rainfall 0.00 in
Snow Depth Not available.
UV 0 out of 12
Pollen 11.80 out of 12
Air Quality Not available.
Flu Activity Not available.
METAR KGJT 310553Z AUTO 08005KT 10SM CLR 11/M08 A3009 RMK AO2 SLP147 T01111083 10239 20094 51004

More Conditions Fewer Conditions

Pressure 29.97 in
Visibility 10.0 miles
Clouds Clear
Dew Point 21 °F
Humidity 28%
Rainfall 0.00 in
Snow Depth Not available.
UV 0 out of 12
Pollen 11.80 out of 12
Air Quality Not available.
Flu Activity Not available.
METAR KGJT 310553Z AUTO 08005KT 10SM CLR 11/M08 A3009 RMK AO2 SLP147 T01111083 10239 20094 51004

More Conditions Fewer Conditions

10-Day Weather Forecast

Almanac

Astronomy

Mar. 31, 2015 Rise Set
Actual Time
Civil Twilight
Nautical Twilight
Astronomical Twilight
Moon
Length of Visible Light
Length of Day
Tomorrow will be .
, % of the Moon is Illuminated

Today's Extremes

State Highs State Lows

Community

WunderPhotos

Upload Photos

1,809,725 photos uploaded!

WunderBlogs® & News

Nearby

Air Quality

  Air Quality AQ Index Pollutant
Not available.

Snow Depth

Station Depth Elevation

Earthquake Activity

City Distance Mag. Time & Date
Minimum magnitude displayed is 2.5.

Coastal Water Temperatures

Place Temperature

Stations

Nearby Weather Stations

Station Location Temp. Windchill Dew Point Humidity Wind Precip. Elev Updated Type